sensor_id;sensor_type;location;lat;lon;timestamp;P1;durP1;ratioP1;P2;durP2;ratioP2
21848;SDS011;11089;49.852;19.700;2023-02-04T00:02:33;13.63;;;5.55;;
21848;SDS011;11089;49.852;19.700;2023-02-04T00:05:34;16.42;;;5.70;;
21848;SDS011;11089;49.852;19.700;2023-02-04T00:08:35;11.40;;;4.78;;
21848;SDS011;11089;49.852;19.700;2023-02-04T00:11:36;14.27;;;5.28;;
21848;SDS011;11089;49.852;19.700;2023-02-04T00:14:37;13.35;;;4.82;;
21848;SDS011;11089;49.852;19.700;2023-02-04T00:17:38;10.38;;;4.60;;
21848;SDS011;11089;49.852;19.700;2023-02-04T00:20:39;14.25;;;5.43;;
21848;SDS011;11089;49.852;19.700;2023-02-04T00:23:40;10.95;;;4.43;;
21848;SDS011;11089;49.852;19.700;2023-02-04T00:26:41;11.32;;;4.30;;
21848;SDS011;11089;49.852;19.700;2023-02-04T00:29:42;12.88;;;4.90;;
21848;SDS011;11089;49.852;19.700;2023-02-04T00:32:43;13.63;;;3.70;;
21848;SDS011;11089;49.852;19.700;2023-02-04T00:35:44;10.50;;;4.15;;
21848;SDS011;11089;49.852;19.700;2023-02-04T00:38:45;10.85;;;4.18;;
21848;SDS011;11089;49.852;19.700;2023-02-04T00:41:46;7.18;;;3.38;;
21848;SDS011;11089;49.852;19.700;2023-02-04T00:44:47;8.75;;;3.15;;
21848;SDS011;11089;49.852;19.700;2023-02-04T00:47:48;7.20;;;3.42;;
21848;SDS011;11089;49.852;19.700;2023-02-04T00:50:48;8.93;;;3.97;;
21848;SDS011;11089;49.852;19.700;2023-02-04T00:53:49;9.05;;;3.95;;
21848;SDS011;11089;49.852;19.700;2023-02-04T00:56:50;9.80;;;4.25;;
21848;SDS011;11089;49.852;19.700;2023-02-04T00:59:51;11.60;;;4.45;;
21848;SDS011;11089;49.852;19.700;2023-02-04T01:02:52;10.10;;;4.45;;
21848;SDS011;11089;49.852;19.700;2023-02-04T01:05:53;12.13;;;4.03;;
21848;SDS011;11089;49.852;19.700;2023-02-04T01:08:54;8.82;;;4.20;;
21848;SDS011;11089;49.852;19.700;2023-02-04T01:11:55;8.48;;;3.80;;
21848;SDS011;11089;49.852;19.700;2023-02-04T01:14:56;14.23;;;4.43;;
21848;SDS011;11089;49.852;19.700;2023-02-04T01:17:57;11.00;;;4.10;;
21848;SDS011;11089;49.852;19.700;2023-02-04T01:20:58;7.95;;;3.55;;
21848;SDS011;11089;49.852;19.700;2023-02-04T01:23:59;7.35;;;3.58;;
21848;SDS011;11089;49.852;19.700;2023-02-04T01:27:00;9.13;;;3.90;;
21848;SDS011;11089;49.852;19.700;2023-02-04T01:30:01;7.70;;;3.67;;
21848;SDS011;11089;49.852;19.700;2023-02-04T01:33:04;8.93;;;3.80;;
21848;SDS011;11089;49.852;19.700;2023-02-04T01:36:05;8.55;;;3.67;;
21848;SDS011;11089;49.852;19.700;2023-02-04T01:39:07;5.20;;;3.38;;
21848;SDS011;11089;49.852;19.700;2023-02-04T01:42:08;7.07;;;3.53;;
21848;SDS011;11089;49.852;19.700;2023-02-04T01:45:09;9.70;;;3.33;;
21848;SDS011;11089;49.852;19.700;2023-02-04T01:48:10;5.95;;;3.15;;
21848;SDS011;11089;49.852;19.700;2023-02-04T01:51:14;7.28;;;3.25;;
21848;SDS011;11089;49.852;19.700;2023-02-04T01:54:27;5.20;;;3.10;;
21848;SDS011;11089;49.852;19.700;2023-02-04T01:57:28;7.38;;;3.20;;
21848;SDS011;11089;49.852;19.700;2023-02-04T02:00:30;8.13;;;3.15;;
21848;SDS011;11089;49.852;19.700;2023-02-04T02:03:31;5.65;;;3.17;;
21848;SDS011;11089;49.852;19.700;2023-02-04T02:06:33;8.18;;;2.80;;
21848;SDS011;11089;49.852;19.700;2023-02-04T02:09:35;8.82;;;3.53;;
21848;SDS011;11089;49.852;19.700;2023-02-04T02:12:36;7.15;;;3.00;;
21848;SDS011;11089;49.852;19.700;2023-02-04T02:15:38;6.22;;;3.05;;
21848;SDS011;11089;49.852;19.700;2023-02-04T02:18:39;6.90;;;3.30;;
21848;SDS011;11089;49.852;19.700;2023-02-04T02:21:43;5.57;;;3.50;;
21848;SDS011;11089;49.852;19.700;2023-02-04T02:24:49;5.53;;;2.92;;
21848;SDS011;11089;49.852;19.700;2023-02-04T02:27:50;7.68;;;3.15;;
21848;SDS011;11089;49.852;19.700;2023-02-04T02:30:51;7.35;;;3.17;;
21848;SDS011;11089;49.852;19.700;2023-02-04T02:33:52;7.43;;;3.30;;
21848;SDS011;11089;49.852;19.700;2023-02-04T02:36:53;9.00;;;3.38;;
21848;SDS011;11089;49.852;19.700;2023-02-04T02:39:54;6.85;;;2.80;;
21848;SDS011;11089;49.852;19.700;2023-02-04T02:42:55;7.40;;;2.83;;
21848;SDS011;11089;49.852;19.700;2023-02-04T02:45:57;5.97;;;3.05;;
21848;SDS011;11089;49.852;19.700;2023-02-04T02:49:00;6.28;;;3.38;;
21848;SDS011;11089;49.852;19.700;2023-02-04T02:52:01;4.70;;;3.00;;
21848;SDS011;11089;49.852;19.700;2023-02-04T02:55:02;4.32;;;2.63;;
21848;SDS011;11089;49.852;19.700;2023-02-04T02:58:03;3.35;;;2.40;;
21848;SDS011;11089;49.852;19.700;2023-02-04T03:01:05;4.25;;;1.90;;
21848;SDS011;11089;49.852;19.700;2023-02-04T03:04:08;3.13;;;2.00;;
21848;SDS011;11089;49.852;19.700;2023-02-04T03:07:10;3.45;;;1.98;;
21848;SDS011;11089;49.852;19.700;2023-02-04T03:10:14;2.40;;;1.63;;
21848;SDS011;11089;49.852;19.700;2023-02-04T03:13:16;2.30;;;1.70;;
21848;SDS011;11089;49.852;19.700;2023-02-04T03:16:18;2.30;;;1.50;;
21848;SDS011;11089;49.852;19.700;2023-02-04T03:19:19;2.58;;;1.50;;
21848;SDS011;11089;49.852;19.700;2023-02-04T03:22:21;3.80;;;1.85;;
21848;SDS011;11089;49.852;19.700;2023-02-04T03:25:23;1.98;;;1.52;;
21848;SDS011;11089;49.852;19.700;2023-02-04T03:28:27;2.72;;;1.60;;
21848;SDS011;11089;49.852;19.700;2023-02-04T03:31:29;2.95;;;1.65;;
21848;SDS011;11089;49.852;19.700;2023-02-04T03:34:30;2.55;;;1.50;;
21848;SDS011;11089;49.852;19.700;2023-02-04T03:37:31;3.13;;;1.70;;
21848;SDS011;11089;49.852;19.700;2023-02-04T03:40:32;1.50;;;1.23;;
21848;SDS011;11089;49.852;19.700;2023-02-04T03:43:33;1.65;;;1.38;;
21848;SDS011;11089;49.852;19.700;2023-02-04T03:46:34;2.80;;;1.50;;
21848;SDS011;11089;49.852;19.700;2023-02-04T03:49:35;3.25;;;1.50;;
21848;SDS011;11089;49.852;19.700;2023-02-04T03:52:36;1.70;;;1.60;;
21848;SDS011;11089;49.852;19.700;2023-02-04T03:55:37;1.38;;;1.23;;
21848;SDS011;11089;49.852;19.700;2023-02-04T03:58:38;1.85;;;1.45;;
21848;SDS011;11089;49.852;19.700;2023-02-04T04:01:38;3.72;;;1.73;;
21848;SDS011;11089;49.852;19.700;2023-02-04T04:04:39;2.63;;;1.60;;
21848;SDS011;11089;49.852;19.700;2023-02-04T04:07:40;1.95;;;1.58;;
21848;SDS011;11089;49.852;19.700;2023-02-04T04:10:41;2.95;;;1.85;;
21848;SDS011;11089;49.852;19.700;2023-02-04T04:13:42;2.33;;;1.80;;
21848;SDS011;11089;49.852;19.700;2023-02-04T04:16:43;2.67;;;1.83;;
21848;SDS011;11089;49.852;19.700;2023-02-04T04:19:44;2.13;;;1.63;;
21848;SDS011;11089;49.852;19.700;2023-02-04T04:22:45;2.35;;;1.60;;
21848;SDS011;11089;49.852;19.700;2023-02-04T04:25:46;2.55;;;1.75;;
21848;SDS011;11089;49.852;19.700;2023-02-04T04:28:47;2.05;;;1.50;;
21848;SDS011;11089;49.852;19.700;2023-02-04T04:31:48;2.88;;;1.85;;
21848;SDS011;11089;49.852;19.700;2023-02-04T04:34:49;4.57;;;2.10;;
21848;SDS011;11089;49.852;19.700;2023-02-04T04:37:49;3.60;;;2.70;;
21848;SDS011;11089;49.852;19.700;2023-02-04T04:40:50;4.68;;;2.25;;
21848;SDS011;11089;49.852;19.700;2023-02-04T04:43:52;4.40;;;2.90;;
21848;SDS011;11089;49.852;19.700;2023-02-04T04:46:53;7.63;;;2.75;;
21848;SDS011;11089;49.852;19.700;2023-02-04T04:49:54;4.45;;;2.95;;
21848;SDS011;11089;49.852;19.700;2023-02-04T04:52:55;4.72;;;2.88;;
21848;SDS011;11089;49.852;19.700;2023-02-04T04:55:55;6.95;;;3.33;;
21848;SDS011;11089;49.852;19.700;2023-02-04T04:58:56;4.22;;;2.92;;
21848;SDS011;11089;49.852;19.700;2023-02-04T05:01:57;4.72;;;3.13;;
21848;SDS011;11089;49.852;19.700;2023-02-04T05:04:58;5.00;;;3.13;;
21848;SDS011;11089;49.852;19.700;2023-02-04T05:07:59;5.60;;;3.58;;
21848;SDS011;11089;49.852;19.700;2023-02-04T05:11:01;6.72;;;3.90;;
21848;SDS011;11089;49.852;19.700;2023-02-04T05:14:02;7.00;;;4.45;;
21848;SDS011;11089;49.852;19.700;2023-02-04T05:17:03;8.32;;;4.90;;
21848;SDS011;11089;49.852;19.700;2023-02-04T05:20:04;8.40;;;4.90;;
21848;SDS011;11089;49.852;19.700;2023-02-04T05:23:05;10.93;;;5.53;;
21848;SDS011;11089;49.852;19.700;2023-02-04T05:26:06;8.93;;;5.25;;
21848;SDS011;11089;49.852;19.700;2023-02-04T05:29:07;7.93;;;5.00;;
21848;SDS011;11089;49.852;19.700;2023-02-04T05:32:09;11.82;;;5.78;;
21848;SDS011;11089;49.852;19.700;2023-02-04T05:35:10;9.63;;;5.28;;
21848;SDS011;11089;49.852;19.700;2023-02-04T05:38:11;8.57;;;4.80;;
21848;SDS011;11089;49.852;19.700;2023-02-04T05:41:12;7.75;;;4.65;;
21848;SDS011;11089;49.852;19.700;2023-02-04T05:44:13;7.00;;;4.38;;
21848;SDS011;11089;49.852;19.700;2023-02-04T05:47:14;7.90;;;5.05;;
21848;SDS011;11089;49.852;19.700;2023-02-04T05:50:15;8.25;;;4.53;;
21848;SDS011;11089;49.852;19.700;2023-02-04T05:53:16;8.25;;;4.70;;
21848;SDS011;11089;49.852;19.700;2023-02-04T05:56:17;6.00;;;3.95;;
21848;SDS011;11089;49.852;19.700;2023-02-04T05:59:18;7.43;;;4.80;;
21848;SDS011;11089;49.852;19.700;2023-02-04T06:02:19;7.18;;;4.55;;
21848;SDS011;11089;49.852;19.700;2023-02-04T06:05:20;7.75;;;4.53;;
21848;SDS011;11089;49.852;19.700;2023-02-04T06:08:22;6.82;;;4.20;;
21848;SDS011;11089;49.852;19.700;2023-02-04T06:11:23;7.80;;;4.50;;
21848;SDS011;11089;49.852;19.700;2023-02-04T06:14:24;8.30;;;4.70;;
21848;SDS011;11089;49.852;19.700;2023-02-04T06:17:25;8.57;;;4.60;;
21848;SDS011;11089;49.852;19.700;2023-02-04T06:20:26;5.90;;;4.00;;
21848;SDS011;11089;49.852;19.700;2023-02-04T06:23:27;6.70;;;4.10;;
21848;SDS011;11089;49.852;19.700;2023-02-04T06:26:28;6.20;;;4.20;;
21848;SDS011;11089;49.852;19.700;2023-02-04T06:29:29;5.82;;;4.13;;
21848;SDS011;11089;49.852;19.700;2023-02-04T06:32:29;6.60;;;4.00;;
21848;SDS011;11089;49.852;19.700;2023-02-04T06:35:30;6.20;;;4.18;;
21848;SDS011;11089;49.852;19.700;2023-02-04T06:38:31;7.57;;;4.07;;
21848;SDS011;11089;49.852;19.700;2023-02-04T06:41:32;7.30;;;4.28;;
21848;SDS011;11089;49.852;19.700;2023-02-04T06:44:33;7.68;;;4.25;;
21848;SDS011;11089;49.852;19.700;2023-02-04T06:47:34;7.68;;;4.38;;
21848;SDS011;11089;49.852;19.700;2023-02-04T06:50:35;7.82;;;4.53;;
21848;SDS011;11089;49.852;19.700;2023-02-04T06:53:36;7.45;;;4.65;;
21848;SDS011;11089;49.852;19.700;2023-02-04T06:56:37;10.85;;;4.90;;
21848;SDS011;11089;49.852;19.700;2023-02-04T06:59:38;7.90;;;4.65;;
21848;SDS011;11089;49.852;19.700;2023-02-04T07:02:40;6.95;;;4.22;;
21848;SDS011;11089;49.852;19.700;2023-02-04T07:05:41;8.73;;;4.28;;
21848;SDS011;11089;49.852;19.700;2023-02-04T07:08:42;8.55;;;4.18;;
21848;SDS011;11089;49.852;19.700;2023-02-04T07:11:43;8.88;;;4.10;;
21848;SDS011;11089;49.852;19.700;2023-02-04T07:14:44;6.65;;;3.97;;
21848;SDS011;11089;49.852;19.700;2023-02-04T07:17:45;8.38;;;4.18;;
21848;SDS011;11089;49.852;19.700;2023-02-04T07:20:46;7.88;;;4.05;;
21848;SDS011;11089;49.852;19.700;2023-02-04T07:23:47;6.90;;;4.30;;
21848;SDS011;11089;49.852;19.700;2023-02-04T07:26:48;6.00;;;3.80;;
21848;SDS011;11089;49.852;19.700;2023-02-04T07:29:49;6.95;;;3.90;;
21848;SDS011;11089;49.852;19.700;2023-02-04T07:32:50;7.50;;;4.45;;
21848;SDS011;11089;49.852;19.700;2023-02-04T07:35:51;7.63;;;4.35;;
21848;SDS011;11089;49.852;19.700;2023-02-04T07:38:51;8.45;;;4.30;;
21848;SDS011;11089;49.852;19.700;2023-02-04T07:41:52;9.23;;;4.90;;
21848;SDS011;11089;49.852;19.700;2023-02-04T07:44:53;8.93;;;4.90;;
21848;SDS011;11089;49.852;19.700;2023-02-04T07:47:54;7.30;;;4.22;;
21848;SDS011;11089;49.852;19.700;2023-02-04T07:50:55;8.13;;;4.80;;
21848;SDS011;11089;49.852;19.700;2023-02-04T07:53:56;10.00;;;5.15;;
21848;SDS011;11089;49.852;19.700;2023-02-04T07:56:57;10.50;;;5.53;;
21848;SDS011;11089;49.852;19.700;2023-02-04T07:59:58;11.77;;;6.07;;
21848;SDS011;11089;49.852;19.700;2023-02-04T08:02:59;9.70;;;5.55;;
21848;SDS011;11089;49.852;19.700;2023-02-04T08:06:00;8.68;;;5.15;;
21848;SDS011;11089;49.852;19.700;2023-02-04T08:09:01;9.93;;;5.03;;
21848;SDS011;11089;49.852;19.700;2023-02-04T08:12:02;8.35;;;4.80;;
21848;SDS011;11089;49.852;19.700;2023-02-04T08:15:03;8.15;;;4.53;;
21848;SDS011;11089;49.852;19.700;2023-02-04T08:18:06;9.73;;;5.55;;
21848;SDS011;11089;49.852;19.700;2023-02-04T08:21:07;9.52;;;4.93;;
21848;SDS011;11089;49.852;19.700;2023-02-04T08:24:08;9.07;;;4.60;;
21848;SDS011;11089;49.852;19.700;2023-02-04T08:27:09;10.10;;;4.60;;
21848;SDS011;11089;49.852;19.700;2023-02-04T08:30:11;6.85;;;4.45;;
21848;SDS011;11089;49.852;19.700;2023-02-04T08:33:12;7.95;;;4.30;;
21848;SDS011;11089;49.852;19.700;2023-02-04T08:36:13;8.00;;;4.45;;
21848;SDS011;11089;49.852;19.700;2023-02-04T08:39:14;5.57;;;4.00;;
21848;SDS011;11089;49.852;19.700;2023-02-04T08:42:15;7.38;;;4.15;;
21848;SDS011;11089;49.852;19.700;2023-02-04T08:45:16;8.05;;;4.28;;
21848;SDS011;11089;49.852;19.700;2023-02-04T08:48:17;8.00;;;4.15;;
21848;SDS011;11089;49.852;19.700;2023-02-04T08:51:18;8.45;;;4.05;;
21848;SDS011;11089;49.852;19.700;2023-02-04T08:54:19;7.45;;;4.30;;
21848;SDS011;11089;49.852;19.700;2023-02-04T08:57:20;7.38;;;4.35;;
21848;SDS011;11089;49.852;19.700;2023-02-04T09:00:21;10.32;;;4.45;;
21848;SDS011;11089;49.852;19.700;2023-02-04T09:03:22;9.32;;;4.90;;
21848;SDS011;11089;49.852;19.700;2023-02-04T09:06:23;8.30;;;4.65;;
21848;SDS011;11089;49.852;19.700;2023-02-04T09:09:24;6.45;;;4.20;;
21848;SDS011;11089;49.852;19.700;2023-02-04T09:12:25;6.25;;;3.60;;
21848;SDS011;11089;49.852;19.700;2023-02-04T09:15:26;10.02;;;4.72;;
21848;SDS011;11089;49.852;19.700;2023-02-04T09:18:27;9.50;;;5.07;;
21848;SDS011;11089;49.852;19.700;2023-02-04T09:21:29;12.98;;;5.03;;
21848;SDS011;11089;49.852;19.700;2023-02-04T09:24:30;8.38;;;4.55;;
21848;SDS011;11089;49.852;19.700;2023-02-04T09:27:31;8.60;;;4.70;;
21848;SDS011;11089;49.852;19.700;2023-02-04T09:30:32;6.45;;;4.10;;
21848;SDS011;11089;49.852;19.700;2023-02-04T09:33:34;8.45;;;4.28;;
21848;SDS011;11089;49.852;19.700;2023-02-04T09:36:35;11.85;;;5.57;;
21848;SDS011;11089;49.852;19.700;2023-02-04T09:39:38;10.63;;;5.30;;
21848;SDS011;11089;49.852;19.700;2023-02-04T09:42:39;8.02;;;4.88;;
21848;SDS011;11089;49.852;19.700;2023-02-04T09:45:40;8.32;;;4.40;;
21848;SDS011;11089;49.852;19.700;2023-02-04T09:48:41;8.80;;;4.60;;
21848;SDS011;11089;49.852;19.700;2023-02-04T09:51:43;8.93;;;4.70;;
21848;SDS011;11089;49.852;19.700;2023-02-04T09:54:47;9.68;;;4.90;;
21848;SDS011;11089;49.852;19.700;2023-02-04T09:57:47;9.50;;;4.60;;
21848;SDS011;11089;49.852;19.700;2023-02-04T10:00:57;9.13;;;4.78;;
21848;SDS011;11089;49.852;19.700;2023-02-04T10:04:00;8.60;;;4.28;;
21848;SDS011;11089;49.852;19.700;2023-02-04T10:07:01;8.93;;;4.40;;
21848;SDS011;11089;49.852;19.700;2023-02-04T10:10:03;8.57;;;4.50;;
21848;SDS011;11089;49.852;19.700;2023-02-04T10:13:04;7.38;;;4.47;;
21848;SDS011;11089;49.852;19.700;2023-02-04T10:16:14;9.10;;;4.57;;
21848;SDS011;11089;49.852;19.700;2023-02-04T10:19:20;12.75;;;5.65;;
21848;SDS011;11089;49.852;19.700;2023-02-04T10:22:22;9.43;;;5.18;;
21848;SDS011;11089;49.852;19.700;2023-02-04T10:25:23;11.38;;;5.00;;
21848;SDS011;11089;49.852;19.700;2023-02-04T10:28:32;11.07;;;5.20;;
21848;SDS011;11089;49.852;19.700;2023-02-04T10:34:38;11.65;;;6.18;;
21848;SDS011;11089;49.852;19.700;2023-02-04T10:37:39;10.23;;;6.03;;
21848;SDS011;11089;49.852;19.700;2023-02-04T10:40:40;16.95;;;7.60;;
21848;SDS011;11089;49.852;19.700;2023-02-04T10:43:42;15.27;;;8.10;;
21848;SDS011;11089;49.852;19.700;2023-02-04T10:46:42;17.38;;;8.68;;
21848;SDS011;11089;49.852;19.700;2023-02-04T10:50:17;19.35;;;9.75;;
21848;SDS011;11089;49.852;19.700;2023-02-04T10:53:18;15.82;;;8.68;;
21848;SDS011;11089;49.852;19.700;2023-02-04T10:56:34;14.73;;;7.75;;
21848;SDS011;11089;49.852;19.700;2023-02-04T10:59:35;14.98;;;7.65;;
21848;SDS011;11089;49.852;19.700;2023-02-04T11:05:55;10.95;;;6.40;;
21848;SDS011;11089;49.852;19.700;2023-02-04T11:08:57;11.20;;;6.10;;
21848;SDS011;11089;49.852;19.700;2023-02-04T11:11:58;11.68;;;5.75;;
21848;SDS011;11089;49.852;19.700;2023-02-04T11:15:00;11.48;;;5.25;;
21848;SDS011;11089;49.852;19.700;2023-02-04T11:18:01;8.95;;;4.95;;
21848;SDS011;11089;49.852;19.700;2023-02-04T11:21:12;7.03;;;3.47;;
21848;SDS011;11089;49.852;19.700;2023-02-04T11:24:24;7.00;;;3.80;;
21848;SDS011;11089;49.852;19.700;2023-02-04T11:27:35;5.95;;;3.45;;
21848;SDS011;11089;49.852;19.700;2023-02-04T11:30:38;7.63;;;3.63;;
21848;SDS011;11089;49.852;19.700;2023-02-04T11:33:40;6.70;;;3.92;;
21848;SDS011;11089;49.852;19.700;2023-02-04T11:40:00;7.60;;;3.30;;
21848;SDS011;11089;49.852;19.700;2023-02-04T11:43:19;7.25;;;3.55;;
21848;SDS011;11089;49.852;19.700;2023-02-04T11:46:20;7.00;;;3.40;;
21848;SDS011;11089;49.852;19.700;2023-02-04T11:49:23;7.25;;;4.00;;
21848;SDS011;11089;49.852;19.700;2023-02-04T11:52:26;7.22;;;3.35;;
21848;SDS011;11089;49.852;19.700;2023-02-04T11:55:27;6.18;;;3.25;;
21848;SDS011;11089;49.852;19.700;2023-02-04T11:58:34;6.80;;;3.90;;
21848;SDS011;11089;49.852;19.700;2023-02-04T12:01:41;6.10;;;3.90;;
21848;SDS011;11089;49.852;19.700;2023-02-04T12:04:52;7.22;;;3.35;;
21848;SDS011;11089;49.852;19.700;2023-02-04T12:08:07;5.60;;;3.30;;
21848;SDS011;11089;49.852;19.700;2023-02-04T12:11:25;6.25;;;2.97;;
21848;SDS011;11089;49.852;19.700;2023-02-04T12:14:36;5.22;;;2.78;;
21848;SDS011;11089;49.852;19.700;2023-02-04T12:17:37;4.53;;;2.75;;
21848;SDS011;11089;49.852;19.700;2023-02-04T12:20:38;5.82;;;3.35;;
21848;SDS011;11089;49.852;19.700;2023-02-04T12:23:39;10.13;;;4.05;;
21848;SDS011;11089;49.852;19.700;2023-02-04T12:26:43;8.85;;;4.07;;
21848;SDS011;11089;49.852;19.700;2023-02-04T12:29:44;9.35;;;4.88;;
21848;SDS011;11089;49.852;19.700;2023-02-04T12:32:45;11.23;;;5.78;;
21848;SDS011;11089;49.852;19.700;2023-02-04T12:35:46;10.60;;;5.90;;
21848;SDS011;11089;49.852;19.700;2023-02-04T12:38:48;9.45;;;5.20;;
21848;SDS011;11089;49.852;19.700;2023-02-04T12:41:49;10.07;;;4.55;;
21848;SDS011;11089;49.852;19.700;2023-02-04T12:44:49;7.90;;;4.10;;
21848;SDS011;11089;49.852;19.700;2023-02-04T12:47:50;6.38;;;2.85;;
21848;SDS011;11089;49.852;19.700;2023-02-04T12:50:51;6.18;;;3.25;;
21848;SDS011;11089;49.852;19.700;2023-02-04T12:53:52;11.15;;;4.97;;
21848;SDS011;11089;49.852;19.700;2023-02-04T12:56:53;7.32;;;3.72;;
21848;SDS011;11089;49.852;19.700;2023-02-04T12:59:57;10.77;;;5.63;;
21848;SDS011;11089;49.852;19.700;2023-02-04T13:02:58;8.10;;;4.10;;
21848;SDS011;11089;49.852;19.700;2023-02-04T13:05:59;9.10;;;4.20;;
21848;SDS011;11089;49.852;19.700;2023-02-04T13:09:00;7.03;;;3.55;;
21848;SDS011;11089;49.852;19.700;2023-02-04T13:12:02;7.80;;;3.25;;
21848;SDS011;11089;49.852;19.700;2023-02-04T13:15:03;5.82;;;3.10;;
21848;SDS011;11089;49.852;19.700;2023-02-04T13:18:04;8.10;;;3.95;;
21848;SDS011;11089;49.852;19.700;2023-02-04T13:21:07;6.10;;;3.22;;
21848;SDS011;11089;49.852;19.700;2023-02-04T13:24:08;8.13;;;3.75;;
21848;SDS011;11089;49.852;19.700;2023-02-04T13:27:09;8.45;;;4.05;;
21848;SDS011;11089;49.852;19.700;2023-02-04T13:30:10;5.80;;;3.00;;
21848;SDS011;11089;49.852;19.700;2023-02-04T13:33:14;6.72;;;3.05;;
21848;SDS011;11089;49.852;19.700;2023-02-04T13:36:15;4.43;;;2.83;;
21848;SDS011;11089;49.852;19.700;2023-02-04T13:39:16;8.45;;;3.40;;
21848;SDS011;11089;49.852;19.700;2023-02-04T13:42:17;7.80;;;3.13;;
21848;SDS011;11089;49.852;19.700;2023-02-04T13:45:18;7.97;;;3.28;;
21848;SDS011;11089;49.852;19.700;2023-02-04T13:48:19;9.65;;;3.45;;
21848;SDS011;11089;49.852;19.700;2023-02-04T13:51:20;10.05;;;3.70;;
21848;SDS011;11089;49.852;19.700;2023-02-04T13:54:21;8.55;;;4.00;;
21848;SDS011;11089;49.852;19.700;2023-02-04T13:57:22;8.00;;;3.17;;
21848;SDS011;11089;49.852;19.700;2023-02-04T14:00:23;10.93;;;3.78;;
21848;SDS011;11089;49.852;19.700;2023-02-04T14:03:25;10.82;;;3.67;;
21848;SDS011;11089;49.852;19.700;2023-02-04T14:06:27;8.18;;;3.58;;
21848;SDS011;11089;49.852;19.700;2023-02-04T14:09:33;11.25;;;3.63;;
21848;SDS011;11089;49.852;19.700;2023-02-04T14:12:33;11.05;;;4.60;;
21848;SDS011;11089;49.852;19.700;2023-02-04T14:15:34;8.98;;;3.97;;
21848;SDS011;11089;49.852;19.700;2023-02-04T14:18:36;11.05;;;4.18;;
21848;SDS011;11089;49.852;19.700;2023-02-04T14:21:37;7.20;;;3.80;;
21848;SDS011;11089;49.852;19.700;2023-02-04T14:24:39;9.35;;;4.20;;
21848;SDS011;11089;49.852;19.700;2023-02-04T14:27:41;15.98;;;4.90;;
21848;SDS011;11089;49.852;19.700;2023-02-04T14:30:42;12.25;;;5.50;;
21848;SDS011;11089;49.852;19.700;2023-02-04T14:33:43;11.70;;;4.95;;
21848;SDS011;11089;49.852;19.700;2023-02-04T14:36:44;12.38;;;5.10;;
21848;SDS011;11089;49.852;19.700;2023-02-04T14:39:45;10.80;;;4.95;;
21848;SDS011;11089;49.852;19.700;2023-02-04T14:42:46;10.57;;;5.13;;
21848;SDS011;11089;49.852;19.700;2023-02-04T14:45:47;14.13;;;6.30;;
21848;SDS011;11089;49.852;19.700;2023-02-04T14:48:48;19.85;;;7.72;;
21848;SDS011;11089;49.852;19.700;2023-02-04T14:51:51;19.30;;;7.68;;
21848;SDS011;11089;49.852;19.700;2023-02-04T14:54:52;16.20;;;7.65;;
21848;SDS011;11089;49.852;19.700;2023-02-04T14:57:53;17.65;;;7.15;;
21848;SDS011;11089;49.852;19.700;2023-02-04T15:00:54;17.77;;;7.85;;
21848;SDS011;11089;49.852;19.700;2023-02-04T15:03:55;18.40;;;7.95;;
21848;SDS011;11089;49.852;19.700;2023-02-04T15:06:56;17.98;;;6.97;;
21848;SDS011;11089;49.852;19.700;2023-02-04T15:09:57;18.95;;;6.85;;
21848;SDS011;11089;49.852;19.700;2023-02-04T15:12:58;13.25;;;5.95;;
21848;SDS011;11089;49.852;19.700;2023-02-04T15:15:59;12.63;;;6.07;;
21848;SDS011;11089;49.852;19.700;2023-02-04T15:19:00;11.98;;;5.22;;
21848;SDS011;11089;49.852;19.700;2023-02-04T15:22:01;13.32;;;5.97;;
21848;SDS011;11089;49.852;19.700;2023-02-04T15:25:03;15.43;;;6.82;;
21848;SDS011;11089;49.852;19.700;2023-02-04T15:28:05;17.25;;;7.80;;
21848;SDS011;11089;49.852;19.700;2023-02-04T15:31:06;16.13;;;6.65;;
21848;SDS011;11089;49.852;19.700;2023-02-04T15:34:07;17.23;;;6.75;;
21848;SDS011;11089;49.852;19.700;2023-02-04T15:37:08;16.48;;;7.18;;
21848;SDS011;11089;49.852;19.700;2023-02-04T15:40:10;24.15;;;8.35;;
21848;SDS011;11089;49.852;19.700;2023-02-04T15:43:11;24.70;;;8.68;;
21848;SDS011;11089;49.852;19.700;2023-02-04T15:46:12;26.75;;;9.00;;
21848;SDS011;11089;49.852;19.700;2023-02-04T15:49:13;20.75;;;9.07;;
21848;SDS011;11089;49.852;19.700;2023-02-04T15:52:14;23.45;;;8.75;;
21848;SDS011;11089;49.852;19.700;2023-02-04T15:55:15;21.05;;;9.07;;
21848;SDS011;11089;49.852;19.700;2023-02-04T15:58:16;24.05;;;10.70;;
21848;SDS011;11089;49.852;19.700;2023-02-04T16:01:17;25.17;;;9.45;;
21848;SDS011;11089;49.852;19.700;2023-02-04T16:04:19;30.52;;;10.90;;
21848;SDS011;11089;49.852;19.700;2023-02-04T16:07:20;30.52;;;10.10;;
21848;SDS011;11089;49.852;19.700;2023-02-04T16:10:21;25.15;;;9.88;;
21848;SDS011;11089;49.852;19.700;2023-02-04T16:13:22;26.17;;;10.18;;
21848;SDS011;11089;49.852;19.700;2023-02-04T16:16:23;19.55;;;8.50;;
21848;SDS011;11089;49.852;19.700;2023-02-04T16:19:24;21.25;;;8.77;;
21848;SDS011;11089;49.852;19.700;2023-02-04T16:22:25;21.33;;;8.40;;
21848;SDS011;11089;49.852;19.700;2023-02-04T16:25:25;18.23;;;7.60;;
21848;SDS011;11089;49.852;19.700;2023-02-04T16:28:26;23.45;;;8.73;;
21848;SDS011;11089;49.852;19.700;2023-02-04T16:31:27;23.17;;;8.77;;
21848;SDS011;11089;49.852;19.700;2023-02-04T16:34:28;22.48;;;8.85;;
21848;SDS011;11089;49.852;19.700;2023-02-04T16:37:29;18.40;;;7.57;;
21848;SDS011;11089;49.852;19.700;2023-02-04T16:40:31;20.13;;;7.60;;
21848;SDS011;11089;49.852;19.700;2023-02-04T16:43:32;19.20;;;7.47;;
21848;SDS011;11089;49.852;19.700;2023-02-04T16:46:33;24.00;;;9.38;;
21848;SDS011;11089;49.852;19.700;2023-02-04T16:49:34;20.92;;;7.93;;
21848;SDS011;11089;49.852;19.700;2023-02-04T16:52:35;21.00;;;7.95;;
21848;SDS011;11089;49.852;19.700;2023-02-04T16:55:36;23.45;;;8.98;;
21848;SDS011;11089;49.852;19.700;2023-02-04T16:58:38;22.67;;;9.07;;
21848;SDS011;11089;49.852;19.700;2023-02-04T17:01:39;19.90;;;8.70;;
21848;SDS011;11089;49.852;19.700;2023-02-04T17:04:40;23.08;;;9.02;;
21848;SDS011;11089;49.852;19.700;2023-02-04T17:07:41;21.20;;;9.15;;
21848;SDS011;11089;49.852;19.700;2023-02-04T17:10:42;26.88;;;9.23;;
21848;SDS011;11089;49.852;19.700;2023-02-04T17:13:57;26.52;;;9.80;;
21848;SDS011;11089;49.852;19.700;2023-02-04T17:17:07;25.42;;;9.65;;
21848;SDS011;11089;49.852;19.700;2023-02-04T17:20:08;25.52;;;10.02;;
21848;SDS011;11089;49.852;19.700;2023-02-04T17:23:10;23.42;;;9.73;;
21848;SDS011;11089;49.852;19.700;2023-02-04T17:26:11;22.75;;;10.18;;
21848;SDS011;11089;49.852;19.700;2023-02-04T17:29:13;24.50;;;9.85;;
21848;SDS011;11089;49.852;19.700;2023-02-04T17:32:20;23.40;;;9.25;;
21848;SDS011;11089;49.852;19.700;2023-02-04T17:35:21;26.00;;;10.80;;
21848;SDS011;11089;49.852;19.700;2023-02-04T17:38:22;28.98;;;11.70;;
21848;SDS011;11089;49.852;19.700;2023-02-04T17:41:23;26.65;;;10.90;;
21848;SDS011;11089;49.852;19.700;2023-02-04T17:44:24;31.63;;;12.10;;
21848;SDS011;11089;49.852;19.700;2023-02-04T17:47:25;32.63;;;12.65;;
21848;SDS011;11089;49.852;19.700;2023-02-04T17:50:26;30.83;;;11.27;;
21848;SDS011;11089;49.852;19.700;2023-02-04T17:53:27;29.83;;;12.05;;
21848;SDS011;11089;49.852;19.700;2023-02-04T17:56:28;33.55;;;14.05;;
21848;SDS011;11089;49.852;19.700;2023-02-04T17:59:29;35.67;;;14.25;;
21848;SDS011;11089;49.852;19.700;2023-02-04T18:02:30;25.90;;;11.02;;